Time;durP1;ratioP1;P1;durP2;ratioP2;P2;SDS_P1;SDS_P2;PMS_P1;PMS_P2;Temp;Humidity;BMP_temperature;BMP_pressure;BME280_temperature;BME280_humidity;BME280_pressure;Samples;Min_cycle;Max_cycle;Signal;HPM_P1;HPM_P2
2024/01/25 00:01:34;;;;;;;35.30;5.72;;;;;;;;;;5093929;28;20079;-72
2024/01/25 00:04:01;;;;;;;30.80;5.35;;;;;;;;;;5059453;28;20052;-71
2024/01/25 00:06:27;;;;;;;38.50;6.72;;;;;;;;;;5052422;28;20131;-72
2024/01/25 00:08:54;;;;;;;30.65;4.40;;;;;;;;;;5088588;28;20048;-71
2024/01/25 00:11:20;;;;;;;31.23;5.47;;;;;;;;;;5094582;28;20048;-73
2024/01/25 00:13:47;;;;;;;28.17;5.05;;;;;;;;;;5086354;28;20439;-71
2024/01/25 00:16:13;;;;;;;24.73;5.20;;;;;;;;;;5079769;28;20049;-72
2024/01/25 00:18:40;;;;;;;32.90;6.57;;;;;;;;;;5074881;28;20800;-72
2024/01/25 00:21:06;;;;;;;25.33;6.00;;;;;;;;;;5064925;28;20098;-72
2024/01/25 00:23:33;;;;;;;23.20;4.80;;;;;;;;;;5080997;28;20044;-72
2024/01/25 00:25:59;;;;;;;23.45;5.05;;;;;;;;;;5086579;28;20335;-72
2024/01/25 00:28:28;;;;;;;22.38;4.78;;;;;;;;;;5063957;28;20663;-72
2024/01/25 00:30:54;;;;;;;37.38;5.25;;;;;;;;;;5067131;28;20063;-72
2024/01/25 00:33:21;;;;;;;34.60;4.93;;;;;;;;;;5093250;28;20862;-72
2024/01/25 00:35:48;;;;;;;26.85;4.35;;;;;;;;;;5087221;28;20055;-72
2024/01/25 00:38:14;;;;;;;27.58;3.88;;;;;;;;;;5085297;28;20047;-72
2024/01/25 00:40:41;;;;;;;24.52;3.63;;;;;;;;;;5080312;28;20056;-72
2024/01/25 00:43:07;;;;;;;27.90;4.68;;;;;;;;;;5085988;28;20060;-72
2024/01/25 00:45:34;;;;;;;30.88;4.60;;;;;;;;;;5069519;28;20063;-72
2024/01/25 00:48:01;;;;;;;26.00;4.22;;;;;;;;;;5078300;28;20178;-72
2024/01/25 00:50:27;;;;;;;25.95;4.35;;;;;;;;;;5084857;28;20498;-73
2024/01/25 00:52:54;;;;;;;22.38;3.85;;;;;;;;;;5076740;28;20495;-73
2024/01/25 00:55:21;;;;;;;26.77;4.97;;;;;;;;;;5072354;28;20076;-72
2024/01/25 00:57:48;;;;;;;27.48;4.32;;;;;;;;;;5085761;28;20097;-72
2024/01/25 01:00:14;;;;;;;21.20;3.53;;;;;;;;;;5087781;28;20689;-74
2024/01/25 01:02:43;;;;;;;26.90;4.55;;;;;;;;;;5097880;28;20044;-73
2024/01/25 01:05:10;;;;;;;33.38;4.57;;;;;;;;;;5079785;28;20585;-72
2024/01/25 01:07:36;;;;;;;21.70;3.70;;;;;;;;;;5077410;28;20150;-73
2024/01/25 01:10:03;;;;;;;29.02;4.50;;;;;;;;;;5094783;28;20571;-72
2024/01/25 01:12:30;;;;;;;28.80;4.32;;;;;;;;;;5101431;28;20122;-72
2024/01/25 01:14:57;;;;;;;27.15;4.70;;;;;;;;;;5059562;28;20793;-72
2024/01/25 01:17:23;;;;;;;23.60;4.22;;;;;;;;;;5081391;28;20126;-73
2024/01/25 01:19:49;;;;;;;29.35;4.22;;;;;;;;;;5066885;28;20097;-73
2024/01/25 01:22:16;;;;;;;28.88;3.85;;;;;;;;;;5049844;28;20048;-73
2024/01/25 01:24:43;;;;;;;28.52;4.22;;;;;;;;;;5085230;28;20840;-72
2024/01/25 01:27:10;;;;;;;28.10;5.00;;;;;;;;;;5076892;28;20047;-73
2024/01/25 01:29:36;;;;;;;23.15;4.32;;;;;;;;;;5077012;28;20131;-72
2024/01/25 01:32:03;;;;;;;26.33;4.28;;;;;;;;;;5082599;28;20109;-72
2024/01/25 01:34:29;;;;;;;26.10;4.13;;;;;;;;;;5070916;28;20075;-72
2024/01/25 01:36:56;;;;;;;24.00;4.00;;;;;;;;;;5065579;28;20379;-72
2024/01/25 01:39:22;;;;;;;29.27;4.95;;;;;;;;;;5062199;28;20044;-72
2024/01/25 01:41:49;;;;;;;26.05;4.18;;;;;;;;;;5090289;28;20482;-72
2024/01/25 01:44:15;;;;;;;22.27;3.95;;;;;;;;;;5069653;28;20131;-72
2024/01/25 01:46:42;;;;;;;21.42;3.97;;;;;;;;;;5080910;28;20056;-72
2024/01/25 01:49:13;;;;;;;25.58;4.10;;;;;;;;;;5084787;28;20040;-72
2024/01/25 01:51:41;;;;;;;34.78;5.28;;;;;;;;;;5080367;28;20044;-72
2024/01/25 01:54:08;;;;;;;22.95;3.72;;;;;;;;;;5099096;28;20156;-73
2024/01/25 01:56:35;;;;;;;31.35;4.43;;;;;;;;;;5099217;28;20139;-73
2024/01/25 01:59:05;;;;;;;29.48;4.97;;;;;;;;;;5094486;28;20097;-72
2024/01/25 02:01:32;;;;;;;30.88;5.00;;;;;;;;;;5075693;28;20054;-72
2024/01/25 02:03:59;;;;;;;32.55;4.93;;;;;;;;;;5081032;28;20049;-72
2024/01/25 02:06:27;;;;;;;30.55;4.47;;;;;;;;;;5088992;28;20135;-73
2024/01/25 02:08:55;;;;;;;32.60;4.50;;;;;;;;;;5094311;28;20047;-72
2024/01/25 02:11:22;;;;;;;30.60;4.78;;;;;;;;;;5079500;28;20078;-72
2024/01/25 02:13:49;;;;;;;25.73;3.90;;;;;;;;;;5087040;28;20048;-72
2024/01/25 02:16:15;;;;;;;26.90;4.60;;;;;;;;;;5083552;28;20071;-72
2024/01/25 02:18:42;;;;;;;27.42;5.32;;;;;;;;;;5095926;28;20131;-72
2024/01/25 02:21:09;;;;;;;32.70;5.75;;;;;;;;;;5086910;28;20048;-73
2024/01/25 02:23:36;;;;;;;26.58;4.53;;;;;;;;;;5069887;28;20135;-72
2024/01/25 02:26:03;;;;;;;35.30;4.72;;;;;;;;;;5082487;28;20105;-72
2024/01/25 02:28:29;;;;;;;32.03;4.55;;;;;;;;;;5081231;28;20151;-72
2024/01/25 02:30:56;;;;;;;23.33;3.95;;;;;;;;;;5083397;28;20048;-73
2024/01/25 02:33:22;;;;;;;30.02;4.75;;;;;;;;;;5073959;28;20040;-71
2024/01/25 02:35:49;;;;;;;25.65;3.72;;;;;;;;;;5095291;28;20162;-72
2024/01/25 02:38:16;;;;;;;27.42;4.68;;;;;;;;;;5083383;28;20126;-72
2024/01/25 02:40:42;;;;;;;27.83;4.43;;;;;;;;;;5087649;28;20085;-71
2024/01/25 02:43:09;;;;;;;25.13;4.63;;;;;;;;;;5073106;28;20044;-72
2024/01/25 02:45:35;;;;;;;30.35;5.10;;;;;;;;;;5083071;28;20044;-72
2024/01/25 02:48:03;;;;;;;29.48;4.60;;;;;;;;;;5083500;28;20143;-71
2024/01/25 02:50:30;;;;;;;31.90;4.67;;;;;;;;;;5077864;28;20040;-72
2024/01/25 02:52:56;;;;;;;29.17;4.47;;;;;;;;;;5067849;28;20110;-72
2024/01/25 02:55:23;;;;;;;25.30;4.25;;;;;;;;;;5072824;28;20071;-72
2024/01/25 02:57:49;;;;;;;24.55;4.88;;;;;;;;;;5081608;28;20452;-71
2024/01/25 03:00:16;;;;;;;28.95;4.75;;;;;;;;;;5079950;28;20048;-71
2024/01/25 03:02:42;;;;;;;22.58;4.00;;;;;;;;;;5086594;28;20442;-71
2024/01/25 03:05:08;;;;;;;27.98;5.20;;;;;;;;;;5097851;28;20051;-72
2024/01/25 03:07:35;;;;;;;36.22;4.47;;;;;;;;;;5084584;28;20738;-72
2024/01/25 03:10:02;;;;;;;28.45;4.38;;;;;;;;;;5078686;28;20052;-71
2024/01/25 03:12:29;;;;;;;26.42;4.18;;;;;;;;;;5078501;28;20046;-71
2024/01/25 03:14:55;;;;;;;29.90;4.70;;;;;;;;;;5082124;28;20463;-71
2024/01/25 03:17:21;;;;;;;22.90;4.03;;;;;;;;;;5068676;28;20044;-71
2024/01/25 03:19:49;;;;;;;25.88;4.55;;;;;;;;;;5073367;28;20276;-72
2024/01/25 03:22:16;;;;;;;25.83;4.25;;;;;;;;;;5070957;28;20041;-71
2024/01/25 03:24:42;;;;;;;33.63;5.47;;;;;;;;;;5071018;28;20139;-71
2024/01/25 03:27:13;;;;;;;30.45;4.90;;;;;;;;;;5075813;28;20131;-72
2024/01/25 03:29:43;;;;;;;27.83;4.45;;;;;;;;;;5080013;28;20500;-71
2024/01/25 03:32:10;;;;;;;28.25;5.15;;;;;;;;;;5087330;28;20075;-71
2024/01/25 03:34:36;;;;;;;30.30;5.22;;;;;;;;;;5100024;28;20611;-71
2024/01/25 03:37:03;;;;;;;30.40;5.45;;;;;;;;;;5055324;28;20671;-72
2024/01/25 03:39:29;;;;;;;37.60;5.07;;;;;;;;;;5079133;28;20047;-71
2024/01/25 03:41:56;;;;;;;34.42;5.07;;;;;;;;;;5076600;28;20129;-71
2024/01/25 03:44:22;;;;;;;25.45;4.18;;;;;;;;;;5082187;28;20157;-72
2024/01/25 03:46:49;;;;;;;25.25;4.47;;;;;;;;;;5081926;28;20140;-72
2024/01/25 03:49:17;;;;;;;27.75;4.30;;;;;;;;;;5084545;28;20749;-71
2024/01/25 03:51:43;;;;;;;23.63;3.97;;;;;;;;;;5062695;28;20044;-72
2024/01/25 03:54:10;;;;;;;24.23;4.63;;;;;;;;;;5074504;28;20044;-71
2024/01/25 03:56:36;;;;;;;28.65;4.25;;;;;;;;;;5081980;28;20052;-71
2024/01/25 03:59:03;;;;;;;25.02;3.90;;;;;;;;;;5094315;28;20049;-70
2024/01/25 04:01:29;;;;;;;20.60;4.05;;;;;;;;;;5077981;28;20044;-71
2024/01/25 04:03:57;;;;;;;27.38;4.47;;;;;;;;;;5090032;28;20357;-71
2024/01/25 04:06:24;;;;;;;26.20;4.35;;;;;;;;;;5076154;28;20629;-71
2024/01/25 04:08:51;;;;;;;24.80;3.97;;;;;;;;;;5064358;28;20644;-71
2024/01/25 04:11:17;;;;;;;25.17;4.18;;;;;;;;;;5073858;28;20114;-71
2024/01/25 04:13:43;;;;;;;24.75;3.70;;;;;;;;;;5096439;28;20075;-71
2024/01/25 04:16:13;;;;;;;23.50;4.45;;;;;;;;;;5088272;28;20141;-71
2024/01/25 04:18:39;;;;;;;32.10;4.50;;;;;;;;;;5082443;28;20043;-71
2024/01/25 04:21:06;;;;;;;25.08;4.00;;;;;;;;;;5090236;28;20526;-72
2024/01/25 04:23:33;;;;;;;26.30;4.35;;;;;;;;;;5081896;28;20143;-71
2024/01/25 04:26:00;;;;;;;23.42;4.40;;;;;;;;;;5070978;28;20119;-71
2024/01/25 04:28:26;;;;;;;22.92;3.97;;;;;;;;;;5083568;28;20055;-70
2024/01/25 04:30:53;;;;;;;34.13;4.90;;;;;;;;;;5086053;28;20094;-70
2024/01/25 04:33:20;;;;;;;25.85;4.30;;;;;;;;;;5097594;28;20138;-72
2024/01/25 04:35:47;;;;;;;23.55;3.78;;;;;;;;;;5077196;28;20488;-70
2024/01/25 04:38:13;;;;;;;25.30;4.22;;;;;;;;;;5091407;28;20492;-70
2024/01/25 04:40:39;;;;;;;27.88;4.68;;;;;;;;;;5080805;28;20124;-71
2024/01/25 04:43:06;;;;;;;30.02;5.25;;;;;;;;;;5098282;28;20051;-71
2024/01/25 04:45:32;;;;;;;24.08;4.70;;;;;;;;;;5096733;28;20047;-70
2024/01/25 04:47:59;;;;;;;22.83;4.85;;;;;;;;;;5085585;28;20102;-71
2024/01/25 04:50:26;;;;;;;33.47;4.50;;;;;;;;;;5092758;28;20056;-71
2024/01/25 04:52:53;;;;;;;22.80;3.78;;;;;;;;;;5079305;28;20121;-71
2024/01/25 04:55:20;;;;;;;27.92;4.85;;;;;;;;;;5087118;28;20126;-70
2024/01/25 04:57:47;;;;;;;23.55;4.32;;;;;;;;;;5080493;28;20056;-71
2024/01/25 05:00:14;;;;;;;23.08;4.18;;;;;;;;;;5096288;28;20044;-71
2024/01/25 05:02:41;;;;;;;26.80;4.10;;;;;;;;;;5066211;28;20147;-71
2024/01/25 05:05:07;;;;;;;27.77;4.20;;;;;;;;;;5087298;28;20974;-72
2024/01/25 05:07:34;;;;;;;25.15;4.38;;;;;;;;;;5091186;28;20115;-71
2024/01/25 05:10:00;;;;;;;25.75;4.60;;;;;;;;;;5081860;28;20051;-72
2024/01/25 05:12:27;;;;;;;25.83;4.45;;;;;;;;;;5070361;28;20395;-71
2024/01/25 05:14:53;;;;;;;22.25;4.50;;;;;;;;;;5095250;28;20056;-70
2024/01/25 05:17:19;;;;;;;23.50;4.60;;;;;;;;;;5076035;28;20714;-71
2024/01/25 05:19:46;;;;;;;31.55;5.10;;;;;;;;;;5084687;28;20078;-72
2024/01/25 05:22:12;;;;;;;21.65;4.35;;;;;;;;;;5092607;28;20110;-70
2024/01/25 05:24:39;;;;;;;31.77;5.20;;;;;;;;;;5086144;28;20051;-71
2024/01/25 05:27:06;;;;;;;26.52;4.25;;;;;;;;;;5091666;28;20052;-70
2024/01/25 05:29:32;;;;;;;20.05;3.90;;;;;;;;;;5073543;28;20702;-70
2024/01/25 05:31:58;;;;;;;19.08;3.83;;;;;;;;;;5087323;28;20044;-70
2024/01/25 05:34:25;;;;;;;27.75;8.52;;;;;;;;;;5080464;28;20047;-71
2024/01/25 05:36:52;;;;;;;24.25;7.80;;;;;;;;;;5087804;28;20047;-71
2024/01/25 05:39:20;;;;;;;24.65;5.32;;;;;;;;;;5090461;28;20047;-71
2024/01/25 05:41:46;;;;;;;24.83;4.30;;;;;;;;;;5076372;28;20076;-70
2024/01/25 05:44:13;;;;;;;21.50;4.30;;;;;;;;;;5091851;28;20043;-71
2024/01/25 05:46:40;;;;;;;29.60;4.80;;;;;;;;;;5078899;28;20052;-70
2024/01/25 05:49:06;;;;;;;18.42;4.22;;;;;;;;;;5083978;28;20056;-72
2024/01/25 05:51:33;;;;;;;23.08;4.25;;;;;;;;;;5077442;28;20511;-71
2024/01/25 05:53:59;;;;;;;27.45;5.30;;;;;;;;;;5067290;28;20152;-70
2024/01/25 05:56:26;;;;;;;23.17;4.57;;;;;;;;;;5085750;28;20475;-71
2024/01/25 05:58:52;;;;;;;20.15;3.58;;;;;;;;;;5089319;28;20151;-70
2024/01/25 06:01:19;;;;;;;25.77;4.63;;;;;;;;;;5081645;28;20067;-70
2024/01/25 06:03:45;;;;;;;21.92;3.75;;;;;;;;;;5078754;28;20048;-70
2024/01/25 06:06:12;;;;;;;24.45;4.57;;;;;;;;;;5084026;28;20036;-70
2024/01/25 06:08:38;;;;;;;23.60;3.90;;;;;;;;;;5090512;28;20756;-71
2024/01/25 06:11:05;;;;;;;21.75;4.07;;;;;;;;;;5086271;28;20087;-71
2024/01/25 06:13:31;;;;;;;22.67;4.20;;;;;;;;;;5085841;28;20146;-71
2024/01/25 06:15:58;;;;;;;29.40;4.55;;;;;;;;;;5084775;28;20076;-70
2024/01/25 06:18:25;;;;;;;21.58;4.07;;;;;;;;;;5092519;28;20055;-70
2024/01/25 06:20:51;;;;;;;16.98;3.58;;;;;;;;;;5087295;28;20047;-70
2024/01/25 06:23:18;;;;;;;26.52;5.60;;;;;;;;;;5085609;28;20633;-70
2024/01/25 06:25:44;;;;;;;29.52;7.22;;;;;;;;;;5063998;28;20520;-71
2024/01/25 06:28:11;;;;;;;19.98;4.65;;;;;;;;;;5086280;28;20040;-70
2024/01/25 06:30:38;;;;;;;29.85;5.13;;;;;;;;;;5080800;28;20079;-73
2024/01/25 06:33:05;;;;;;;32.70;4.70;;;;;;;;;;5090782;28;20507;-73
2024/01/25 06:35:31;;;;;;;32.03;5.57;;;;;;;;;;5089846;28;20094;-71
2024/01/25 06:37:58;;;;;;;25.40;4.45;;;;;;;;;;5059711;28;20094;-71
2024/01/25 06:40:25;;;;;;;30.15;5.65;;;;;;;;;;5076183;28;20055;-71
2024/01/25 06:42:51;;;;;;;29.38;5.53;;;;;;;;;;5073352;28;20331;-71
2024/01/25 06:45:18;;;;;;;23.30;5.10;;;;;;;;;;5081136;28;20051;-73
2024/01/25 06:47:44;;;;;;;26.40;4.55;;;;;;;;;;5090801;28;20059;-72
2024/01/25 06:50:10;;;;;;;23.67;4.50;;;;;;;;;;5084757;28;20044;-72
2024/01/25 06:52:37;;;;;;;19.95;4.30;;;;;;;;;;5065595;28;20048;-71
2024/01/25 06:55:04;;;;;;;24.48;5.15;;;;;;;;;;5076014;28;20062;-72
2024/01/25 06:57:30;;;;;;;28.63;4.53;;;;;;;;;;5051254;28;20040;-72
2024/01/25 06:59:57;;;;;;;15.88;3.92;;;;;;;;;;5074227;28;20040;-72
2024/01/25 07:02:24;;;;;;;28.50;4.15;;;;;;;;;;5074693;28;20039;-72
2024/01/25 07:04:52;;;;;;;24.05;4.82;;;;;;;;;;5083267;28;20607;-72
2024/01/25 07:07:19;;;;;;;28.75;4.90;;;;;;;;;;5080582;28;20055;-71
2024/01/25 07:09:46;;;;;;;23.75;3.88;;;;;;;;;;5084796;28;20043;-71
2024/01/25 07:12:12;;;;;;;24.70;5.10;;;;;;;;;;5080509;28;20126;-71
2024/01/25 07:14:39;;;;;;;20.33;4.82;;;;;;;;;;5087697;28;20052;-71
2024/01/25 07:17:05;;;;;;;24.45;4.82;;;;;;;;;;5093016;28;20151;-72
2024/01/25 07:19:32;;;;;;;24.15;5.00;;;;;;;;;;5071900;28;20043;-71
2024/01/25 07:21:58;;;;;;;22.73;3.75;;;;;;;;;;5093545;28;20063;-72
2024/01/25 07:24:26;;;;;;;28.60;5.30;;;;;;;;;;5079676;28;20102;-72
2024/01/25 07:26:52;;;;;;;25.63;4.60;;;;;;;;;;5083381;28;20143;-71
2024/01/25 07:29:22;;;;;;;24.05;4.57;;;;;;;;;;5084180;28;20059;-72
2024/01/25 07:31:48;;;;;;;20.15;3.90;;;;;;;;;;5077421;28;20048;-71
2024/01/25 07:34:15;;;;;;;27.25;5.28;;;;;;;;;;5090798;28;20093;-71
2024/01/25 07:36:43;;;;;;;28.67;4.57;;;;;;;;;;5083474;28;20125;-72
2024/01/25 07:39:11;;;;;;;27.77;4.30;;;;;;;;;;5085730;28;20044;-72
2024/01/25 07:41:38;;;;;;;22.60;5.00;;;;;;;;;;5057869;28;20052;-72
2024/01/25 07:44:05;;;;;;;27.70;5.10;;;;;;;;;;5064962;28;20051;-72
2024/01/25 07:46:32;;;;;;;26.27;5.40;;;;;;;;;;5083262;28;20125;-71
2024/01/25 07:48:58;;;;;;;27.92;5.43;;;;;;;;;;5076489;28;20044;-71
2024/01/25 07:51:28;;;;;;;31.90;6.18;;;;;;;;;;5083145;28;20443;-71
2024/01/25 07:53:55;;;;;;;21.90;4.15;;;;;;;;;;5080848;28;20603;-71
2024/01/25 07:56:24;;;;;;;34.92;5.07;;;;;;;;;;5086883;28;20044;-71
2024/01/25 07:58:51;;;;;;;33.05;5.00;;;;;;;;;;5066743;28;20048;-71
2024/01/25 08:01:18;;;;;;;29.98;5.75;;;;;;;;;;5085665;28;20059;-71
2024/01/25 08:03:45;;;;;;;38.95;6.30;;;;;;;;;;5093155;28;20087;-72
2024/01/25 08:06:12;;;;;;;31.13;5.65;;;;;;;;;;5076739;28;20094;-72
2024/01/25 08:08:39;;;;;;;35.13;5.97;;;;;;;;;;5083697;28;20064;-72
2024/01/25 08:11:05;;;;;;;29.63;5.32;;;;;;;;;;5079934;28;20044;-71
2024/01/25 08:13:31;;;;;;;26.55;6.07;;;;;;;;;;5087116;28;20048;-72
2024/01/25 08:16:01;;;;;;;25.10;4.82;;;;;;;;;;5082825;28;20527;-72
2024/01/25 08:18:29;;;;;;;18.80;5.38;;;;;;;;;;5079151;28;20134;-71
2024/01/25 08:20:56;;;;;;;;;;;;;;;;;;5085565;28;20721;-72
2024/01/25 08:23:23;;;;;;;21.60;4.47;;;;;;;;;;5102058;27;19924;-71
2024/01/25 08:25:49;;;;;;;24.88;5.05;;;;;;;;;;5074346;28;20094;-71
2024/01/25 08:28:16;;;;;;;28.80;5.40;;;;;;;;;;5086649;28;20159;-72
2024/01/25 08:30:42;;;;;;;32.97;5.88;;;;;;;;;;5094430;28;20947;-72
2024/01/25 08:33:09;;;;;;;33.10;6.05;;;;;;;;;;5084655;28;20513;-71
2024/01/25 08:35:35;;;;;;;24.17;5.57;;;;;;;;;;5081277;28;20051;-71
2024/01/25 08:38:02;;;;;;;30.55;5.00;;;;;;;;;;5085744;28;20918;-70
2024/01/25 08:40:29;;;;;;;24.17;5.10;;;;;;;;;;5064387;28;20052;-71
2024/01/25 08:42:56;;;;;;;28.95;5.28;;;;;;;;;;5091798;28;20635;-71
2024/01/25 08:45:23;;;;;;;19.80;4.40;;;;;;;;;;5085503;28;20059;-72
2024/01/25 08:47:51;;;;;;;25.70;4.78;;;;;;;;;;5085780;28;20043;-71
2024/01/25 08:50:17;;;;;;;24.10;4.63;;;;;;;;;;5083996;28;20079;-72
2024/01/25 08:52:44;;;;;;;24.77;5.32;;;;;;;;;;5083861;28;20409;-72
2024/01/25 08:55:10;;;;;;;28.08;5.53;;;;;;;;;;5091159;28;20745;-72
2024/01/25 08:57:37;;;;;;;21.13;4.00;;;;;;;;;;5063115;28;20486;-71
2024/01/25 09:00:10;;;;;;;26.10;4.50;;;;;;;;;;5091979;28;20456;-71
2024/01/25 09:02:37;;;;;;;20.73;4.53;;;;;;;;;;5089974;28;20085;-71
2024/01/25 09:05:04;;;;;;;31.70;5.85;;;;;;;;;;5087522;28;20067;-71
2024/01/25 09:07:31;;;;;;;23.30;5.10;;;;;;;;;;5074219;28;20052;-72
2024/01/25 09:09:58;;;;;;;27.70;6.30;;;;;;;;;;5076274;28;20066;-72
2024/01/25 09:12:25;;;;;;;25.77;5.47;;;;;;;;;;5092514;28;20044;-71
2024/01/25 09:14:51;;;;;;;25.13;4.95;;;;;;;;;;5092415;28;20051;-71
2024/01/25 09:17:21;;;;;;;32.03;5.93;;;;;;;;;;5066410;28;20051;-72
2024/01/25 09:19:51;;;;;;;37.80;6.85;;;;;;;;;;5084664;28;20052;-73
2024/01/25 09:22:21;;;;;;;26.08;5.75;;;;;;;;;;5071858;28;20048;-72
2024/01/25 09:24:48;;;;;;;28.75;5.75;;;;;;;;;;5089615;28;20425;-72
2024/01/25 09:27:15;;;;;;;34.20;5.55;;;;;;;;;;5081951;28;20220;-73
2024/01/25 09:29:42;;;;;;;28.33;5.72;;;;;;;;;;5082693;28;20510;-71
2024/01/25 09:32:09;;;;;;;32.05;6.05;;;;;;;;;;5085029;28;20179;-74
2024/01/25 09:34:36;;;;;;;29.83;6.35;;;;;;;;;;5080233;28;20036;-73
2024/01/25 09:37:05;;;;;;;31.13;5.47;;;;;;;;;;5085961;28;20036;-72
2024/01/25 09:39:32;;;;;;;24.55;5.80;;;;;;;;;;5079117;28;20156;-73
2024/01/25 09:42:01;;;;;;;27.75;5.05;;;;;;;;;;5080083;28;20083;-74
2024/01/25 09:44:27;;;;;;;40.30;6.60;;;;;;;;;;5058333;28;20082;-72
2024/01/25 09:46:55;;;;;;;40.85;7.35;;;;;;;;;;5084102;28;20454;-73
2024/01/25 09:49:21;;;;;;;44.75;6.70;;;;;;;;;;5085474;28;20583;-77
2024/01/25 09:51:50;;;;;;;29.15;6.68;;;;;;;;;;5078725;28;20076;-72
2024/01/25 09:54:17;;;;;;;30.58;6.68;;;;;;;;;;5083897;28;20084;-71
2024/01/25 09:56:44;;;;;;;24.40;5.88;;;;;;;;;;5087778;28;20055;-71
2024/01/25 09:59:11;;;;;;;36.83;7.20;;;;;;;;;;5082758;28;20127;-71
2024/01/25 10:01:38;;;;;;;35.65;7.18;;;;;;;;;;5086003;28;20036;-72
2024/01/25 10:04:06;;;;;;;23.45;5.07;;;;;;;;;;5078137;28;20047;-72
2024/01/25 10:06:33;;;;;;;34.90;6.93;;;;;;;;;;5085425;28;20047;-71
2024/01/25 10:09:00;;;;;;;25.05;5.80;;;;;;;;;;5056731;28;20650;-72
2024/01/25 10:11:28;;;;;;;36.33;6.50;;;;;;;;;;5079308;28;20044;-70
2024/01/25 10:13:56;;;;;;;32.08;5.90;;;;;;;;;;5062442;28;20072;-71
2024/01/25 10:16:23;;;;;;;32.83;6.43;;;;;;;;;;5089525;28;20076;-71
2024/01/25 10:18:51;;;;;;;39.33;7.00;;;;;;;;;;5084221;28;20380;-74
2024/01/25 10:21:19;;;;;;;35.85;7.10;;;;;;;;;;5073208;28;20127;-72
2024/01/25 10:23:47;;;;;;;35.80;6.45;;;;;;;;;;5080699;28;20058;-71
2024/01/25 10:26:15;;;;;;;26.67;7.00;;;;;;;;;;5081884;28;20134;-71
2024/01/25 10:28:41;;;;;;;37.03;6.82;;;;;;;;;;5084904;28;20048;-72
2024/01/25 10:31:08;;;;;;;29.17;6.38;;;;;;;;;;5076030;28;20048;-76
2024/01/25 10:33:38;;;;;;;26.95;6.93;;;;;;;;;;5086605;28;20078;-76
2024/01/25 10:36:08;;;;;;;33.03;6.38;;;;;;;;;;5089868;28;20091;-75
2024/01/25 10:38:37;;;;;;;;;;;;;;;;;;5076864;28;20047;-74
2024/01/25 10:41:05;;;;;;;36.50;7.80;;;;;;;;;;5067099;28;19967;-75
2024/01/25 10:43:32;;;;;;;34.72;6.38;;;;;;;;;;5064101;28;20048;-75
2024/01/25 10:46:00;;;;;;;39.63;8.03;;;;;;;;;;5068167;28;20408;-73
2024/01/25 10:48:30;;;;;;;28.65;6.07;;;;;;;;;;5086505;28;20035;-75
2024/01/25 10:50:59;;;;;;;34.63;6.80;;;;;;;;;;5070110;28;20048;-75
2024/01/25 10:53:26;;;;;;;27.63;6.68;;;;;;;;;;5090093;28;20039;-74
2024/01/25 10:55:53;;;;;;;30.88;7.88;;;;;;;;;;5069454;28;20105;-75
2024/01/25 10:58:19;;;;;;;35.75;7.30;;;;;;;;;;5074422;28;20122;-74
2024/01/25 11:00:50;;;;;;;34.80;7.05;;;;;;;;;;5066568;28;20487;-75
2024/01/25 11:03:18;;;;;;;40.65;7.88;;;;;;;;;;5055049;28;20769;-74
2024/01/25 11:05:45;;;;;;;34.80;7.10;;;;;;;;;;5058664;28;20033;-75
2024/01/25 11:08:19;;;;;;;34.70;7.47;;;;;;;;;;5065475;28;20056;-74
2024/01/25 11:10:50;;;;;;;33.47;7.90;;;;;;;;;;5083434;28;20052;-75
2024/01/25 11:13:22;;;;;;;36.00;7.60;;;;;;;;;;5080668;28;20114;-75
2024/01/25 11:15:49;;;;;;;32.22;7.28;;;;;;;;;;5066941;28;20393;-74
2024/01/25 11:18:16;;;;;;;32.53;7.68;;;;;;;;;;5076846;28;20059;-75
2024/01/25 11:20:46;;;;;;;32.78;7.13;;;;;;;;;;5058215;28;20049;-75
2024/01/25 11:23:14;;;;;;;36.40;8.30;;;;;;;;;;5079543;28;20056;-75
2024/01/25 11:25:44;;;;;;;40.05;8.13;;;;;;;;;;5073690;28;20475;-75
2024/01/25 11:28:10;;;;;;;23.08;6.35;;;;;;;;;;5067013;28;20127;-74
2024/01/25 11:30:37;;;;;;;38.03;8.05;;;;;;;;;;5082494;28;20043;-76
2024/01/25 11:33:07;;;;;;;36.22;7.30;;;;;;;;;;5062196;28;20050;-75
2024/01/25 11:35:34;;;;;;;42.95;9.38;;;;;;;;;;5063749;28;20508;-76
2024/01/25 11:38:01;;;;;;;36.70;8.77;;;;;;;;;;5083506;28;20068;-76
2024/01/25 11:40:29;;;;;;;28.65;7.15;;;;;;;;;;5085816;28;20086;-76
2024/01/25 11:42:57;;;;;;;40.33;9.43;;;;;;;;;;5079691;28;20048;-75
2024/01/25 11:45:24;;;;;;;31.25;7.70;;;;;;;;;;5072096;28;20068;-77
2024/01/25 11:47:51;;;;;;;36.40;8.82;;;;;;;;;;5057440;28;20174;-75
2024/01/25 11:50:18;;;;;;;35.97;7.55;;;;;;;;;;5086309;28;20040;-75
2024/01/25 11:52:44;;;;;;;33.92;7.72;;;;;;;;;;5087747;28;20143;-75
2024/01/25 11:55:11;;;;;;;34.25;8.40;;;;;;;;;;5068009;28;20047;-75
2024/01/25 11:57:40;;;;;;;34.95;8.15;;;;;;;;;;5086896;28;20155;-75
2024/01/25 12:00:09;;;;;;;28.33;7.47;;;;;;;;;;5081811;28;20060;-75
2024/01/25 12:02:36;;;;;;;31.73;8.73;;;;;;;;;;5085916;28;20460;-75
2024/01/25 12:05:03;;;;;;;39.08;8.60;;;;;;;;;;5091104;28;20074;-77
2024/01/25 12:07:30;;;;;;;32.42;8.77;;;;;;;;;;5076312;28;20059;-75
2024/01/25 12:10:02;;;;;;;35.85;9.20;;;;;;;;;;5068513;28;20056;-75
2024/01/25 12:12:29;;;;;;;39.28;8.73;;;;;;;;;;5081947;28;20052;-74
2024/01/25 12:14:59;;;;;;;38.33;8.48;;;;;;;;;;5070611;28;20048;-74
2024/01/25 12:17:29;;;;;;;33.88;7.28;;;;;;;;;;5081288;28;20043;-75
2024/01/25 12:19:59;;;;;;;40.55;8.45;;;;;;;;;;5087010;28;20066;-74
2024/01/25 12:22:29;;;;;;;34.72;8.20;;;;;;;;;;5080106;28;20043;-75
2024/01/25 12:25:01;;;;;;;30.20;7.55;;;;;;;;;;5067081;28;20050;-75
2024/01/25 12:27:30;;;;;;;30.65;8.50;;;;;;;;;;5074018;28;20055;-74
2024/01/25 12:29:57;;;;;;;36.75;7.90;;;;;;;;;;5077544;28;20055;-74
2024/01/25 12:32:23;;;;;;;33.70;9.73;;;;;;;;;;5090293;28;20048;-75
2024/01/25 12:34:53;;;;;;;37.42;8.45;;;;;;;;;;5084372;28;20101;-74
2024/01/25 12:37:20;;;;;;;29.98;8.27;;;;;;;;;;5071948;28;20669;-74
2024/01/25 12:39:48;;;;;;;36.50;9.15;;;;;;;;;;5067773;28;20040;-75
2024/01/25 12:42:14;;;;;;;41.30;9.43;;;;;;;;;;5078046;28;20036;-77
2024/01/25 12:44:41;;;;;;;32.38;9.23;;;;;;;;;;5069122;28;20055;-74
2024/01/25 12:47:08;;;;;;;36.28;8.68;;;;;;;;;;5067565;28;20067;-75
2024/01/25 12:49:34;;;;;;;37.42;9.18;;;;;;;;;;5090279;28;20048;-76
2024/01/25 12:52:01;;;;;;;34.90;9.02;;;;;;;;;;5084013;28;20106;-75
2024/01/25 12:54:28;;;;;;;41.30;9.88;;;;;;;;;;5091366;28;20177;-75
2024/01/25 12:56:56;;;;;;;29.10;7.65;;;;;;;;;;5100432;28;20052;-76
2024/01/25 12:59:23;;;;;;;31.08;9.38;;;;;;;;;;5086724;28;20060;-74
2024/01/25 13:01:50;;;;;;;35.67;8.35;;;;;;;;;;5091849;28;20044;-74
2024/01/25 13:04:16;;;;;;;37.40;8.05;;;;;;;;;;5075730;28;20102;-75
2024/01/25 13:06:43;;;;;;;29.05;9.23;;;;;;;;;;5076556;28;20515;-75
2024/01/25 13:09:10;;;;;;;41.70;8.85;;;;;;;;;;5057986;28;20042;-75
2024/01/25 13:11:37;;;;;;;31.08;8.25;;;;;;;;;;5088284;28;20039;-74
2024/01/25 13:14:03;;;;;;;33.90;8.20;;;;;;;;;;5067214;28;20040;-74
2024/01/25 13:16:30;;;;;;;33.63;7.93;;;;;;;;;;5065876;28;20079;-74
2024/01/25 13:18:56;;;;;;;33.53;8.15;;;;;;;;;;5068564;28;20109;-77
2024/01/25 13:21:23;;;;;;;33.10;7.80;;;;;;;;;;5061994;28;20148;-75
2024/01/25 13:23:49;;;;;;;35.05;7.90;;;;;;;;;;5068578;28;20650;-75
2024/01/25 13:26:16;;;;;;;27.48;6.55;;;;;;;;;;5091209;28;20044;-77
2024/01/25 13:28:43;;;;;;;31.67;6.93;;;;;;;;;;5081456;28;20044;-75
2024/01/25 13:31:09;;;;;;;32.63;8.40;;;;;;;;;;5068703;28;20071;-75
2024/01/25 13:33:35;;;;;;;29.80;7.75;;;;;;;;;;5079640;28;20055;-76
2024/01/25 13:36:04;;;;;;;45.05;9.65;;;;;;;;;;5087296;28;20052;-76
2024/01/25 13:38:31;;;;;;;25.55;7.95;;;;;;;;;;5086717;28;20044;-75
2024/01/25 13:40:57;;;;;;;32.70;9.55;;;;;;;;;;5088850;28;20059;-76
2024/01/25 13:43:24;;;;;;;36.00;10.52;;;;;;;;;;5071534;28;20524;-76
2024/01/25 13:45:50;;;;;;;37.80;10.95;;;;;;;;;;5083891;28;20052;-75
2024/01/25 13:48:18;;;;;;;32.67;9.63;;;;;;;;;;5083144;28;20064;-77
2024/01/25 13:50:45;;;;;;;41.42;10.70;;;;;;;;;;5055989;28;20446;-76
2024/01/25 13:53:12;;;;;;;31.88;10.15;;;;;;;;;;5087132;28;20373;-75
2024/01/25 13:55:38;;;;;;;37.15;9.32;;;;;;;;;;5088901;28;20074;-76
2024/01/25 13:58:05;;;;;;;38.05;11.10;;;;;;;;;;5066388;28;20074;-76
2024/01/25 14:00:32;;;;;;;37.88;11.65;;;;;;;;;;5083698;28;20071;-76
2024/01/25 14:02:58;;;;;;;33.50;11.80;;;;;;;;;;5074387;28;20764;-76
2024/01/25 14:05:25;;;;;;;34.40;11.38;;;;;;;;;;5087308;28;20060;-74
2024/01/25 14:07:51;;;;;;;36.35;11.90;;;;;;;;;;5066259;28;20056;-76
2024/01/25 14:10:19;;;;;;;37.60;12.88;;;;;;;;;;5085106;28;20056;-77
2024/01/25 14:12:47;;;;;;;38.40;13.65;;;;;;;;;;5067628;28;20048;-75
2024/01/25 14:15:14;;;;;;;43.37;15.77;;;;;;;;;;5076605;28;20511;-76
2024/01/25 14:17:41;;;;;;;39.78;16.02;;;;;;;;;;5060639;28;20085;-75
2024/01/25 14:20:08;;;;;;;40.13;13.75;;;;;;;;;;5084247;28;20126;-76
2024/01/25 14:22:35;;;;;;;38.42;15.70;;;;;;;;;;5089765;28;20040;-76
2024/01/25 14:25:03;;;;;;;40.28;15.55;;;;;;;;;;5074221;28;20797;-76
2024/01/25 14:27:30;;;;;;;41.13;15.88;;;;;;;;;;5065464;28;20067;-75
2024/01/25 14:29:56;;;;;;;48.17;16.70;;;;;;;;;;5064644;28;20723;-75